Terminal Aerodrome Forecast
Issued by NWS Louisville, KY

Home | Current Version | Previous Version | Text Only | Print | Product List | Glossary On
Versions: 1 2 3 4 5 6 7 8 9 10 11 12 13 14 15 16 17 18 19 20
000
FTUS43 KLMK 230300 AAB
TAFSDF
TAF AMD
KSDF 230346Z 2304/2406 14007KT 4SM RA BR BKN020 OVC050
     FM230600 16012KT 5SM BR VCSH OVC018 WS020/19040KT
     FM231200 19007KT 5SM -SHRA BR OVC012
     FM232200 VRB04KT 5SM BR VCSH OVC015=

USA.gov is the U.S. government's official web portal to all federal, state and local government web resources and services.